Witoka, Minnesota
Current Conditions -  °F | °C
As of 2:54 AM on Saturday 29 Nov 2014 (Local Time) from KONA Reporting Station
Clear Clear  
Wind Chill: 25°   Ceiling: Unl
Heat Index: 25°   Visibility: 7mi
Dew Point: 23°   Wind: 3mph
Humidity: 93%   Direction: 170°S
Pressure: 29.66"   Gusts: NA
Location:  43.9823°N, 91.6349°W
Report Text: KONA 290854Z AUTO 17003KT 7SM CLR M04/M05 A2966 RMK AO2
Loading
Personal Weather Stations






























Interactive Weather Map New forecast layout! Learn more

10-Day Weather Forecast

Advertisements
Track Severe Weather on mobile